Corpus Christi, TX

9:36 PM CDT on July 28, 2015 (GMT -0500)
Corpus Christi Naval Air Station-Truax | Change Station
CLOSE
Current Station
Airport
Location: Corpus Christi NAS,
Elevation: 20 ft
Nearby Weather Stations

Elev 20 ft 27.69 °N, 97.29 °W | Updated 40 minutes ago

Clear
Clear
82 °F
Feels Like 91 °F
N
16
Wind Variable Wind from SSE
Gusts 23 mph

Today
High -- | Low -- °F
--% Chance of Precip.
Yesterday
High -- | Low -- °F
Precip. -- in
6:50 AM 8:21 PM
Waxing Gibbous, 93% visible
Pressure 29.93 in
Visibility 10.0 miles
Clouds Few 1700 ft
Few 25000 ft
Heat Index 91 °F
Dew Point 78 °F
Humidity 88%
Rainfall 0.00 in
Snow Depth Not available.
UV 0 out of 12
Pollen 4.00 out of 12
Ozone Good
Flu Activity Not available.
METAR KNGP 290156Z 15014G20KT 10SM FEW017 FEW250 28/26 A2993 RMK AO2 SLP133 T02780256

More Conditions Fewer Conditions

Pressure 29.93 in
Visibility 10.0 miles
Clouds Few 1700 ft
Few 25000 ft
Heat Index 91 °F
Dew Point 78 °F
Humidity 88%
Rainfall 0.00 in
Snow Depth Not available.
UV 0 out of 12
Pollen 4.00 out of 12
Ozone Good
Flu Activity Not available.
METAR KNGP 290156Z 15014G20KT 10SM FEW017 FEW250 28/26 A2993 RMK AO2 SLP133 T02780256

More Conditions Fewer Conditions

10-Day Weather Forecast

Almanac

Astronomy

Jul. 28, 2015 Rise Set
Actual Time 6:50 AM CDT 8:21 PM CDT
Civil Twilight 6:24 AM CDT 8:46 PM CDT
Nautical Twilight 5:54 AM CDT 9:16 PM CDT
Astronomical Twilight 5:22 AM CDT 9:48 PM CDT
Moon 5:54 PM CDT (7/28) 4:02 AM CDT (7/28)
Length of Visible Light 14h 21m
Length of Day
13h 31m
Tomorrow will be 1m 9s shorter.
Waxing Gibbous, 93% of the Moon is Illuminated
Today
Waxing Gibbous
Jul 31
Full
Aug 6
Last Quarter
Aug 14
New
Aug 22
First Quarter

Today's Extremes

State Highs State Lows

Community

WunderPhotos

Upload Photos

1,842,012 photos uploaded!

Nearby

Air Quality

  Air Quality AQ Index Pollutant
Yesterday Good
OZONE
Current Good
OZONE
Tuesday Good
PM10
Tuesday Good
OZONE
Wednesday Good
OZONE
Wednesday Good
PM10
Thursday Good
OZONE
Thursday Good
PM10
Friday Good
PM10
Friday Good
OZONE

Snow Depth

Station Depth Elevation
No new snow has been reported.

Earthquake Activity

City Distance Mag. Time & Date
No recent earthquake activity has been reported nearby.
Minimum magnitude displayed is 2.5.

Coastal Water Temperatures

Place Temperature
Packery Channel, TX 88.0 °F
Port Aransas, TX 82.9 °F
Malaquite Beach (Corpus Christi), TX 82.0 °F

Nearby Weather Stations